sensor_id;sensor_type;location;lat;lon;timestamp;P1;durP1;ratioP1;P2;durP2;ratioP2
58071;SDS011;60383;46.626;18.866;2023-05-10T00:01:27;3.83;;;2.45;;
58071;SDS011;60383;46.626;18.866;2023-05-10T00:03:52;3.92;;;2.38;;
58071;SDS011;60383;46.626;18.866;2023-05-10T00:06:18;3.15;;;2.17;;
58071;SDS011;60383;46.626;18.866;2023-05-10T00:08:44;4.57;;;2.40;;
58071;SDS011;60383;46.626;18.866;2023-05-10T00:11:10;3.22;;;2.65;;
58071;SDS011;60383;46.626;18.866;2023-05-10T00:13:35;4.18;;;2.50;;
58071;SDS011;60383;46.626;18.866;2023-05-10T00:16:01;3.35;;;2.50;;
58071;SDS011;60383;46.626;18.866;2023-05-10T00:18:27;3.17;;;2.30;;
58071;SDS011;60383;46.626;18.866;2023-05-10T00:20:52;3.92;;;2.53;;
58071;SDS011;60383;46.626;18.866;2023-05-10T00:23:18;4.22;;;2.88;;
58071;SDS011;60383;46.626;18.866;2023-05-10T00:25:43;3.75;;;2.63;;
58071;SDS011;60383;46.626;18.866;2023-05-10T00:28:09;3.88;;;2.88;;
58071;SDS011;60383;46.626;18.866;2023-05-10T00:30:34;3.63;;;2.63;;
58071;SDS011;60383;46.626;18.866;2023-05-10T00:32:59;4.30;;;2.97;;
58071;SDS011;60383;46.626;18.866;2023-05-10T00:35:25;3.78;;;2.53;;
58071;SDS011;60383;46.626;18.866;2023-05-10T00:37:51;3.65;;;2.63;;
58071;SDS011;60383;46.626;18.866;2023-05-10T00:40:16;4.57;;;2.80;;
58071;SDS011;60383;46.626;18.866;2023-05-10T00:42:42;3.53;;;2.50;;
58071;SDS011;60383;46.626;18.866;2023-05-10T00:45:07;4.68;;;3.08;;
58071;SDS011;60383;46.626;18.866;2023-05-10T00:47:33;5.93;;;3.13;;
58071;SDS011;60383;46.626;18.866;2023-05-10T00:49:59;4.15;;;2.53;;
58071;SDS011;60383;46.626;18.866;2023-05-10T00:52:26;4.45;;;2.78;;
58071;SDS011;60383;46.626;18.866;2023-05-10T00:54:52;3.53;;;2.80;;
58071;SDS011;60383;46.626;18.866;2023-05-10T00:57:18;4.50;;;2.83;;
58071;SDS011;60383;46.626;18.866;2023-05-10T00:59:44;7.80;;;2.95;;
58071;SDS011;60383;46.626;18.866;2023-05-10T01:02:10;4.57;;;2.83;;
58071;SDS011;60383;46.626;18.866;2023-05-10T01:04:36;4.45;;;3.00;;
58071;SDS011;60383;46.626;18.866;2023-05-10T01:07:02;5.43;;;2.90;;
58071;SDS011;60383;46.626;18.866;2023-05-10T01:09:28;3.55;;;2.80;;
58071;SDS011;60383;46.626;18.866;2023-05-10T01:11:53;4.00;;;2.88;;
58071;SDS011;60383;46.626;18.866;2023-05-10T01:14:20;4.63;;;2.70;;
58071;SDS011;60383;46.626;18.866;2023-05-10T01:16:47;4.05;;;3.00;;
58071;SDS011;60383;46.626;18.866;2023-05-10T01:19:18;4.22;;;2.88;;
58071;SDS011;60383;46.626;18.866;2023-05-10T01:27:17;4.72;;;3.00;;
58071;SDS011;60383;46.626;18.866;2023-05-10T01:32:53;4.68;;;3.00;;
58071;SDS011;60383;46.626;18.866;2023-05-10T01:38:07;3.67;;;3.08;;
58071;SDS011;60383;46.626;18.866;2023-05-10T01:40:46;3.78;;;3.13;;
58071;SDS011;60383;46.626;18.866;2023-05-10T01:43:21;4.30;;;2.72;;
58071;SDS011;60383;46.626;18.866;2023-05-10T01:46:00;4.63;;;3.10;;
58071;SDS011;60383;46.626;18.866;2023-05-10T01:48:35;4.15;;;2.83;;
58071;SDS011;60383;46.626;18.866;2023-05-10T01:51:06;5.70;;;3.63;;
58071;SDS011;60383;46.626;18.866;2023-05-10T01:53:33;4.30;;;3.25;;
58071;SDS011;60383;46.626;18.866;2023-05-10T01:56:02;4.68;;;3.28;;
58071;SDS011;60383;46.626;18.866;2023-05-10T01:58:30;5.75;;;3.40;;
58071;SDS011;60383;46.626;18.866;2023-05-10T02:00:58;4.57;;;2.85;;
58071;SDS011;60383;46.626;18.866;2023-05-10T02:03:26;3.95;;;3.17;;
58071;SDS011;60383;46.626;18.866;2023-05-10T02:05:53;5.28;;;3.47;;
58071;SDS011;60383;46.626;18.866;2023-05-10T02:08:21;5.35;;;3.33;;
58071;SDS011;60383;46.626;18.866;2023-05-10T02:10:47;3.78;;;2.88;;
58071;SDS011;60383;46.626;18.866;2023-05-10T02:13:15;4.88;;;2.88;;
58071;SDS011;60383;46.626;18.866;2023-05-10T02:15:43;4.20;;;3.10;;
58071;SDS011;60383;46.626;18.866;2023-05-10T02:18:12;4.50;;;3.15;;
58071;SDS011;60383;46.626;18.866;2023-05-10T02:20:40;4.68;;;3.05;;
58071;SDS011;60383;46.626;18.866;2023-05-10T02:23:08;4.30;;;2.97;;
58071;SDS011;60383;46.626;18.866;2023-05-10T02:25:35;6.10;;;3.33;;
58071;SDS011;60383;46.626;18.866;2023-05-10T02:28:02;4.40;;;3.10;;
58071;SDS011;60383;46.626;18.866;2023-05-10T02:30:31;5.32;;;3.13;;
58071;SDS011;60383;46.626;18.866;2023-05-10T02:32:58;4.55;;;2.92;;
58071;SDS011;60383;46.626;18.866;2023-05-10T02:35:25;4.68;;;3.00;;
58071;SDS011;60383;46.626;18.866;2023-05-10T02:37:52;5.78;;;3.25;;
58071;SDS011;60383;46.626;18.866;2023-05-10T02:40:18;4.95;;;3.30;;
58071;SDS011;60383;46.626;18.866;2023-05-10T02:42:47;5.05;;;3.47;;
58071;SDS011;60383;46.626;18.866;2023-05-10T02:45:17;6.28;;;3.33;;
58071;SDS011;60383;46.626;18.866;2023-05-10T02:47:46;6.53;;;3.50;;
58071;SDS011;60383;46.626;18.866;2023-05-10T02:50:11;5.15;;;3.42;;
58071;SDS011;60383;46.626;18.866;2023-05-10T02:52:43;4.72;;;3.45;;
58071;SDS011;60383;46.626;18.866;2023-05-10T02:55:13;4.97;;;3.65;;
58071;SDS011;60383;46.626;18.866;2023-05-10T02:58:02;5.60;;;3.22;;
58071;SDS011;60383;46.626;18.866;2023-05-10T03:00:27;6.35;;;3.30;;
58071;SDS011;60383;46.626;18.866;2023-05-10T03:02:53;4.95;;;3.10;;
58071;SDS011;60383;46.626;18.866;2023-05-10T03:05:19;5.47;;;3.10;;
58071;SDS011;60383;46.626;18.866;2023-05-10T03:07:45;5.75;;;3.78;;
58071;SDS011;60383;46.626;18.866;2023-05-10T03:10:11;5.80;;;3.30;;
58071;SDS011;60383;46.626;18.866;2023-05-10T03:12:56;5.32;;;3.15;;
58071;SDS011;60383;46.626;18.866;2023-05-10T03:15:52;5.25;;;3.65;;
58071;SDS011;60383;46.626;18.866;2023-05-10T03:18:29;3.67;;;2.88;;
58071;SDS011;60383;46.626;18.866;2023-05-10T03:21:10;7.10;;;3.42;;
58071;SDS011;60383;46.626;18.866;2023-05-10T03:26:08;5.03;;;3.30;;
58071;SDS011;60383;46.626;18.866;2023-05-10T03:28:34;6.32;;;3.67;;
58071;SDS011;60383;46.626;18.866;2023-05-10T03:31:00;4.40;;;2.97;;
58071;SDS011;60383;46.626;18.866;2023-05-10T03:33:27;4.38;;;2.97;;
58071;SDS011;60383;46.626;18.866;2023-05-10T03:35:53;5.10;;;3.53;;
58071;SDS011;60383;46.626;18.866;2023-05-10T03:38:18;5.03;;;3.33;;
58071;SDS011;60383;46.626;18.866;2023-05-10T03:40:44;5.10;;;3.38;;
58071;SDS011;60383;46.626;18.866;2023-05-10T03:43:09;3.78;;;3.13;;
58071;SDS011;60383;46.626;18.866;2023-05-10T03:45:35;4.40;;;3.13;;
58071;SDS011;60383;46.626;18.866;2023-05-10T03:48:00;4.43;;;3.00;;
58071;SDS011;60383;46.626;18.866;2023-05-10T03:50:26;4.32;;;3.13;;
58071;SDS011;60383;46.626;18.866;2023-05-10T03:52:51;6.13;;;3.53;;
58071;SDS011;60383;46.626;18.866;2023-05-10T03:55:17;4.60;;;3.30;;
58071;SDS011;60383;46.626;18.866;2023-05-10T03:57:42;4.15;;;2.92;;
58071;SDS011;60383;46.626;18.866;2023-05-10T04:00:08;4.78;;;3.08;;
58071;SDS011;60383;46.626;18.866;2023-05-10T04:02:34;4.43;;;3.25;;
58071;SDS011;60383;46.626;18.866;2023-05-10T04:05:00;3.58;;;2.90;;
58071;SDS011;60383;46.626;18.866;2023-05-10T04:07:26;4.57;;;3.05;;
58071;SDS011;60383;46.626;18.866;2023-05-10T04:09:51;4.38;;;3.10;;
58071;SDS011;60383;46.626;18.866;2023-05-10T04:12:17;4.53;;;3.20;;
58071;SDS011;60383;46.626;18.866;2023-05-10T04:14:42;4.97;;;3.22;;
58071;SDS011;60383;46.626;18.866;2023-05-10T04:17:08;4.28;;;3.10;;
58071;SDS011;60383;46.626;18.866;2023-05-10T04:19:33;4.53;;;3.25;;
58071;SDS011;60383;46.626;18.866;2023-05-10T04:21:59;3.92;;;2.83;;
58071;SDS011;60383;46.626;18.866;2023-05-10T04:24:24;4.45;;;3.58;;
58071;SDS011;60383;46.626;18.866;2023-05-10T04:26:51;5.32;;;3.10;;
58071;SDS011;60383;46.626;18.866;2023-05-10T04:29:16;4.13;;;2.83;;
58071;SDS011;60383;46.626;18.866;2023-05-10T04:31:42;4.53;;;3.38;;
58071;SDS011;60383;46.626;18.866;2023-05-10T04:34:07;3.92;;;3.10;;
58071;SDS011;60383;46.626;18.866;2023-05-10T04:36:33;4.05;;;3.30;;
58071;SDS011;60383;46.626;18.866;2023-05-10T04:39:00;5.10;;;3.22;;
58071;SDS011;60383;46.626;18.866;2023-05-10T04:41:28;3.75;;;3.00;;
58071;SDS011;60383;46.626;18.866;2023-05-10T04:43:53;5.43;;;3.80;;
58071;SDS011;60383;46.626;18.866;2023-05-10T04:46:19;5.15;;;3.30;;
58071;SDS011;60383;46.626;18.866;2023-05-10T04:48:44;4.32;;;3.25;;
58071;SDS011;60383;46.626;18.866;2023-05-10T04:51:10;4.95;;;3.40;;
58071;SDS011;60383;46.626;18.866;2023-05-10T04:53:36;4.95;;;3.25;;
58071;SDS011;60383;46.626;18.866;2023-05-10T04:56:01;4.93;;;3.00;;
58071;SDS011;60383;46.626;18.866;2023-05-10T04:58:27;5.50;;;3.70;;
58071;SDS011;60383;46.626;18.866;2023-05-10T05:00:52;5.68;;;3.47;;
58071;SDS011;60383;46.626;18.866;2023-05-10T05:03:18;4.43;;;3.20;;
58071;SDS011;60383;46.626;18.866;2023-05-10T05:05:44;5.45;;;3.47;;
58071;SDS011;60383;46.626;18.866;2023-05-10T05:08:09;6.15;;;3.72;;
58071;SDS011;60383;46.626;18.866;2023-05-10T05:10:35;4.65;;;3.30;;
58071;SDS011;60383;46.626;18.866;2023-05-10T05:13:00;4.85;;;2.95;;
58071;SDS011;60383;46.626;18.866;2023-05-10T05:15:26;4.75;;;3.13;;
58071;SDS011;60383;46.626;18.866;2023-05-10T05:17:52;5.22;;;3.72;;
58071;SDS011;60383;46.626;18.866;2023-05-10T05:20:17;4.93;;;3.60;;
58071;SDS011;60383;46.626;18.866;2023-05-10T05:22:44;4.13;;;3.05;;
58071;SDS011;60383;46.626;18.866;2023-05-10T05:25:09;4.47;;;3.42;;
58071;SDS011;60383;46.626;18.866;2023-05-10T05:27:36;4.13;;;3.42;;
58071;SDS011;60383;46.626;18.866;2023-05-10T05:30:02;4.25;;;3.08;;
58071;SDS011;60383;46.626;18.866;2023-05-10T05:32:27;4.80;;;3.13;;
58071;SDS011;60383;46.626;18.866;2023-05-10T05:34:53;4.97;;;3.33;;
58071;SDS011;60383;46.626;18.866;2023-05-10T05:37:18;4.05;;;3.03;;
58071;SDS011;60383;46.626;18.866;2023-05-10T05:39:46;4.55;;;3.58;;
58071;SDS011;60383;46.626;18.866;2023-05-10T05:42:11;3.33;;;2.90;;
58071;SDS011;60383;46.626;18.866;2023-05-10T05:44:38;3.53;;;3.05;;
58071;SDS011;60383;46.626;18.866;2023-05-10T05:47:04;3.75;;;3.35;;
58071;SDS011;60383;46.626;18.866;2023-05-10T05:49:30;3.78;;;3.00;;
58071;SDS011;60383;46.626;18.866;2023-05-10T05:52:00;4.63;;;2.97;;
58071;SDS011;60383;46.626;18.866;2023-05-10T05:54:26;4.70;;;2.92;;
58071;SDS011;60383;46.626;18.866;2023-05-10T05:56:55;3.92;;;2.60;;
58071;SDS011;60383;46.626;18.866;2023-05-10T05:59:21;2.80;;;2.20;;
58071;SDS011;60383;46.626;18.866;2023-05-10T06:01:47;3.92;;;2.90;;
58071;SDS011;60383;46.626;18.866;2023-05-10T06:04:13;3.72;;;2.83;;
58071;SDS011;60383;46.626;18.866;2023-05-10T06:06:38;3.45;;;2.72;;
58071;SDS011;60383;46.626;18.866;2023-05-10T06:09:04;4.18;;;3.08;;
58071;SDS011;60383;46.626;18.866;2023-05-10T06:11:29;4.22;;;2.50;;
58071;SDS011;60383;46.626;18.866;2023-05-10T06:13:57;5.47;;;2.60;;
58071;SDS011;60383;46.626;18.866;2023-05-10T06:16:23;3.33;;;2.40;;
58071;SDS011;60383;46.626;18.866;2023-05-10T06:18:48;4.32;;;3.13;;
58071;SDS011;60383;46.626;18.866;2023-05-10T06:21:14;3.00;;;2.75;;
58071;SDS011;60383;46.626;18.866;2023-05-10T06:23:40;4.70;;;2.90;;
58071;SDS011;60383;46.626;18.866;2023-05-10T06:26:05;3.38;;;2.58;;
58071;SDS011;60383;46.626;18.866;2023-05-10T06:28:31;2.85;;;2.53;;
58071;SDS011;60383;46.626;18.866;2023-05-10T06:30:57;3.08;;;2.20;;
58071;SDS011;60383;46.626;18.866;2023-05-10T06:33:22;4.03;;;2.50;;
58071;SDS011;60383;46.626;18.866;2023-05-10T06:35:48;3.15;;;2.60;;
58071;SDS011;60383;46.626;18.866;2023-05-10T06:38:13;4.18;;;2.10;;
58071;SDS011;60383;46.626;18.866;2023-05-10T06:40:42;4.20;;;2.50;;
58071;SDS011;60383;46.626;18.866;2023-05-10T06:43:08;3.22;;;2.38;;
58071;SDS011;60383;46.626;18.866;2023-05-10T06:45:34;3.28;;;2.20;;
58071;SDS011;60383;46.626;18.866;2023-05-10T06:47:59;2.60;;;2.30;;
58071;SDS011;60383;46.626;18.866;2023-05-10T06:50:25;2.80;;;2.15;;
58071;SDS011;60383;46.626;18.866;2023-05-10T06:52:50;2.60;;;2.33;;
58071;SDS011;60383;46.626;18.866;2023-05-10T06:55:16;2.88;;;2.10;;
58071;SDS011;60383;46.626;18.866;2023-05-10T06:57:41;3.05;;;2.17;;
58071;SDS011;60383;46.626;18.866;2023-05-10T07:00:07;2.20;;;1.92;;
58071;SDS011;60383;46.626;18.866;2023-05-10T07:02:34;3.33;;;2.20;;
58071;SDS011;60383;46.626;18.866;2023-05-10T07:05:00;4.97;;;2.45;;
58071;SDS011;60383;46.626;18.866;2023-05-10T07:07:26;2.72;;;2.03;;
58071;SDS011;60383;46.626;18.866;2023-05-10T07:09:51;3.13;;;2.63;;
58071;SDS011;60383;46.626;18.866;2023-05-10T07:12:17;2.58;;;2.20;;
58071;SDS011;60383;46.626;18.866;2023-05-10T07:14:42;4.38;;;2.38;;
58071;SDS011;60383;46.626;18.866;2023-05-10T07:17:08;4.10;;;2.72;;
58071;SDS011;60383;46.626;18.866;2023-05-10T07:19:33;3.15;;;2.42;;
58071;SDS011;60383;46.626;18.866;2023-05-10T07:21:59;1.85;;;1.67;;
58071;SDS011;60383;46.626;18.866;2023-05-10T07:24:25;2.90;;;2.17;;
58071;SDS011;60383;46.626;18.866;2023-05-10T07:26:50;2.50;;;2.30;;
58071;SDS011;60383;46.626;18.866;2023-05-10T07:29:16;4.20;;;2.25;;
58071;SDS011;60383;46.626;18.866;2023-05-10T07:31:41;3.33;;;2.47;;
58071;SDS011;60383;46.626;18.866;2023-05-10T07:34:07;3.45;;;2.63;;
58071;SDS011;60383;46.626;18.866;2023-05-10T07:36:33;4.55;;;2.30;;
58071;SDS011;60383;46.626;18.866;2023-05-10T07:38:59;2.60;;;1.95;;
58071;SDS011;60383;46.626;18.866;2023-05-10T07:41:25;4.40;;;2.10;;
58071;SDS011;60383;46.626;18.866;2023-05-10T07:43:51;2.88;;;2.05;;
58071;SDS011;60383;46.626;18.866;2023-05-10T07:46:16;2.90;;;2.20;;
58071;SDS011;60383;46.626;18.866;2023-05-10T07:48:41;2.38;;;2.17;;
58071;SDS011;60383;46.626;18.866;2023-05-10T07:51:07;2.67;;;2.30;;
58071;SDS011;60383;46.626;18.866;2023-05-10T07:53:34;2.92;;;2.40;;
58071;SDS011;60383;46.626;18.866;2023-05-10T07:56:19;2.53;;;2.33;;
58071;SDS011;60383;46.626;18.866;2023-05-10T07:58:54;3.85;;;2.38;;
58071;SDS011;60383;46.626;18.866;2023-05-10T08:01:21;2.60;;;2.20;;
58071;SDS011;60383;46.626;18.866;2023-05-10T08:03:47;4.60;;;1.98;;
58071;SDS011;60383;46.626;18.866;2023-05-10T08:06:14;2.88;;;2.25;;
58071;SDS011;60383;46.626;18.866;2023-05-10T08:08:40;2.78;;;2.35;;
58071;SDS011;60383;46.626;18.866;2023-05-10T08:11:06;3.08;;;2.47;;
58071;SDS011;60383;46.626;18.866;2023-05-10T08:13:32;2.55;;;2.35;;
58071;SDS011;60383;46.626;18.866;2023-05-10T08:15:57;2.40;;;2.05;;
58071;SDS011;60383;46.626;18.866;2023-05-10T08:18:23;2.97;;;2.10;;
58071;SDS011;60383;46.626;18.866;2023-05-10T08:20:48;3.67;;;2.38;;
58071;SDS011;60383;46.626;18.866;2023-05-10T08:23:14;5.57;;;1.92;;
58071;SDS011;60383;46.626;18.866;2023-05-10T08:25:39;4.45;;;2.45;;
58071;SDS011;60383;46.626;18.866;2023-05-10T08:28:05;2.13;;;1.92;;
58071;SDS011;60383;46.626;18.866;2023-05-10T08:30:30;2.45;;;1.83;;
58071;SDS011;60383;46.626;18.866;2023-05-10T08:32:56;4.65;;;2.00;;
58071;SDS011;60383;46.626;18.866;2023-05-10T08:35:21;2.65;;;2.25;;
58071;SDS011;60383;46.626;18.866;2023-05-10T08:37:47;3.92;;;2.28;;
58071;SDS011;60383;46.626;18.866;2023-05-10T08:40:13;2.35;;;2.13;;
58071;SDS011;60383;46.626;18.866;2023-05-10T08:42:40;3.58;;;2.05;;
58071;SDS011;60383;46.626;18.866;2023-05-10T08:45:10;2.65;;;1.92;;
58071;SDS011;60383;46.626;18.866;2023-05-10T08:47:36;2.17;;;1.80;;
58071;SDS011;60383;46.626;18.866;2023-05-10T08:50:03;2.30;;;2.10;;
58071;SDS011;60383;46.626;18.866;2023-05-10T08:52:30;2.33;;;2.08;;
58071;SDS011;60383;46.626;18.866;2023-05-10T08:54:58;2.20;;;2.00;;
58071;SDS011;60383;46.626;18.866;2023-05-10T08:57:23;2.10;;;1.60;;
58071;SDS011;60383;46.626;18.866;2023-05-10T08:59:49;1.90;;;1.67;;
58071;SDS011;60383;46.626;18.866;2023-05-10T09:02:15;1.95;;;1.70;;
58071;SDS011;60383;46.626;18.866;2023-05-10T09:04:43;3.40;;;1.80;;
58071;SDS011;60383;46.626;18.866;2023-05-10T09:07:08;2.03;;;1.90;;
58071;SDS011;60383;46.626;18.866;2023-05-10T09:09:35;1.55;;;1.45;;
58071;SDS011;60383;46.626;18.866;2023-05-10T09:12:02;2.00;;;1.80;;
58071;SDS011;60383;46.626;18.866;2023-05-10T09:14:27;2.00;;;1.65;;
58071;SDS011;60383;46.626;18.866;2023-05-10T09:16:54;2.13;;;1.90;;
58071;SDS011;60383;46.626;18.866;2023-05-10T09:19:20;1.85;;;1.65;;
58071;SDS011;60383;46.626;18.866;2023-05-10T09:21:45;1.60;;;1.40;;
58071;SDS011;60383;46.626;18.866;2023-05-10T09:24:11;1.65;;;1.55;;
58071;SDS011;60383;46.626;18.866;2023-05-10T09:26:45;2.28;;;1.70;;
58071;SDS011;60383;46.626;18.866;2023-05-10T09:29:13;2.15;;;1.50;;
58071;SDS011;60383;46.626;18.866;2023-05-10T09:31:48;4.47;;;1.67;;
58071;SDS011;60383;46.626;18.866;2023-05-10T09:34:31;1.85;;;1.60;;
58071;SDS011;60383;46.626;18.866;2023-05-10T09:36:58;1.63;;;1.50;;
58071;SDS011;60383;46.626;18.866;2023-05-10T09:39:33;2.03;;;1.50;;
58071;SDS011;60383;46.626;18.866;2023-05-10T09:42:01;1.40;;;1.30;;
58071;SDS011;60383;46.626;18.866;2023-05-10T09:44:28;1.50;;;1.35;;
58071;SDS011;60383;46.626;18.866;2023-05-10T09:46:54;1.60;;;1.40;;
58071;SDS011;60383;46.626;18.866;2023-05-10T09:49:20;1.50;;;1.40;;
58071;SDS011;60383;46.626;18.866;2023-05-10T09:51:47;1.75;;;1.33;;
58071;SDS011;60383;46.626;18.866;2023-05-10T09:54:22;2.15;;;1.65;;
58071;SDS011;60383;46.626;18.866;2023-05-10T09:56:48;1.60;;;1.40;;
58071;SDS011;60383;46.626;18.866;2023-05-10T09:59:14;1.50;;;1.40;;
58071;SDS011;60383;46.626;18.866;2023-05-10T10:01:40;1.58;;;1.40;;
58071;SDS011;60383;46.626;18.866;2023-05-10T10:04:06;1.98;;;1.30;;
58071;SDS011;60383;46.626;18.866;2023-05-10T10:06:40;2.30;;;1.50;;
58071;SDS011;60383;46.626;18.866;2023-05-10T10:09:06;1.70;;;1.40;;
58071;SDS011;60383;46.626;18.866;2023-05-10T10:11:33;1.50;;;1.30;;
58071;SDS011;60383;46.626;18.866;2023-05-10T10:14:00;1.63;;;1.40;;
58071;SDS011;60383;46.626;18.866;2023-05-10T10:16:27;1.50;;;1.40;;
58071;SDS011;60383;46.626;18.866;2023-05-10T10:18:54;1.65;;;1.48;;
58071;SDS011;60383;46.626;18.866;2023-05-10T10:21:20;1.50;;;1.40;;
58071;SDS011;60383;46.626;18.866;2023-05-10T10:23:47;1.67;;;1.25;;
58071;SDS011;60383;46.626;18.866;2023-05-10T10:26:12;1.95;;;1.60;;
58071;SDS011;60383;46.626;18.866;2023-05-10T10:28:41;1.83;;;1.60;;
58071;SDS011;60383;46.626;18.866;2023-05-10T10:31:23;1.40;;;1.30;;
58071;SDS011;60383;46.626;18.866;2023-05-10T10:34:03;1.33;;;1.23;;
58071;SDS011;60383;46.626;18.866;2023-05-10T10:36:42;1.42;;;1.30;;
58071;SDS011;60383;46.626;18.866;2023-05-10T10:39:10;1.45;;;1.35;;
58071;SDS011;60383;46.626;18.866;2023-05-10T10:41:38;2.33;;;1.52;;
58071;SDS011;60383;46.626;18.866;2023-05-10T10:46:59;2.03;;;1.60;;
58071;SDS011;60383;46.626;18.866;2023-05-10T10:49:25;1.40;;;1.30;;
58071;SDS011;60383;46.626;18.866;2023-05-10T10:57:46;1.65;;;1.30;;
58071;SDS011;60383;46.626;18.866;2023-05-10T11:02:46;1.85;;;1.33;;
58071;SDS011;60383;46.626;18.866;2023-05-10T11:07:54;1.40;;;1.30;;
58071;SDS011;60383;46.626;18.866;2023-05-10T11:10:21;1.27;;;1.17;;
58071;SDS011;60383;46.626;18.866;2023-05-10T11:13:06;1.30;;;1.20;;
58071;SDS011;60383;46.626;18.866;2023-05-10T11:15:34;1.38;;;1.27;;
58071;SDS011;60383;46.626;18.866;2023-05-10T11:21:07;1.10;;;1.10;;
58071;SDS011;60383;46.626;18.866;2023-05-10T11:26:14;2.13;;;1.40;;
58071;SDS011;60383;46.626;18.866;2023-05-10T11:28:43;1.60;;;1.50;;
58071;SDS011;60383;46.626;18.866;2023-05-10T11:31:09;1.05;;;1.00;;
58071;SDS011;60383;46.626;18.866;2023-05-10T11:36:15;1.33;;;1.10;;
58071;SDS011;60383;46.626;18.866;2023-05-10T11:38:42;3.40;;;1.40;;
58071;SDS011;60383;46.626;18.866;2023-05-10T11:41:09;1.88;;;1.65;;
58071;SDS011;60383;46.626;18.866;2023-05-10T11:43:36;1.80;;;1.50;;
58071;SDS011;60383;46.626;18.866;2023-05-10T11:46:04;1.52;;;1.42;;
58071;SDS011;60383;46.626;18.866;2023-05-10T11:48:31;1.48;;;1.20;;
58071;SDS011;60383;46.626;18.866;2023-05-10T11:50:57;1.27;;;1.17;;
58071;SDS011;60383;46.626;18.866;2023-05-10T11:53:23;2.55;;;1.35;;
58071;SDS011;60383;46.626;18.866;2023-05-10T11:55:50;1.38;;;1.20;;
58071;SDS011;60383;46.626;18.866;2023-05-10T11:58:17;1.30;;;1.20;;
58071;SDS011;60383;46.626;18.866;2023-05-10T12:00:43;1.33;;;1.23;;
58071;SDS011;60383;46.626;18.866;2023-05-10T12:03:10;1.38;;;1.27;;
58071;SDS011;60383;46.626;18.866;2023-05-10T12:05:36;1.90;;;1.48;;
58071;SDS011;60383;46.626;18.866;2023-05-10T12:08:12;1.52;;;1.42;;
58071;SDS011;60383;46.626;18.866;2023-05-10T12:10:40;1.58;;;1.40;;
58071;SDS011;60383;46.626;18.866;2023-05-10T12:13:10;1.55;;;1.30;;
58071;SDS011;60383;46.626;18.866;2023-05-10T12:15:38;2.33;;;1.10;;
58071;SDS011;60383;46.626;18.866;2023-05-10T12:18:03;1.30;;;1.20;;
58071;SDS011;60383;46.626;18.866;2023-05-10T12:20:30;1.50;;;1.40;;
58071;SDS011;60383;46.626;18.866;2023-05-10T12:22:56;1.73;;;1.63;;
58071;SDS011;60383;46.626;18.866;2023-05-10T12:25:23;1.83;;;1.40;;
58071;SDS011;60383;46.626;18.866;2023-05-10T12:27:55;1.23;;;1.10;;
58071;SDS011;60383;46.626;18.866;2023-05-10T12:30:22;4.53;;;3.10;;
58071;SDS011;60383;46.626;18.866;2023-05-10T12:32:49;2.10;;;1.17;;
58071;SDS011;60383;46.626;18.866;2023-05-10T12:35:15;3.30;;;1.33;;
58071;SDS011;60383;46.626;18.866;2023-05-10T12:37:44;1.70;;;1.42;;
58071;SDS011;60383;46.626;18.866;2023-05-10T12:40:10;1.50;;;1.40;;
58071;SDS011;60383;46.626;18.866;2023-05-10T12:42:37;2.33;;;1.33;;
58071;SDS011;60383;46.626;18.866;2023-05-10T12:45:04;1.50;;;1.40;;
58071;SDS011;60383;46.626;18.866;2023-05-10T12:47:31;1.13;;;1.10;;
58071;SDS011;60383;46.626;18.866;2023-05-10T12:49:56;1.67;;;1.30;;
58071;SDS011;60383;46.626;18.866;2023-05-10T12:52:22;1.30;;;1.20;;
58071;SDS011;60383;46.626;18.866;2023-05-10T12:54:48;1.30;;;1.20;;
58071;SDS011;60383;46.626;18.866;2023-05-10T12:57:14;1.38;;;1.20;;
58071;SDS011;60383;46.626;18.866;2023-05-10T12:59:39;1.30;;;1.20;;
58071;SDS011;60383;46.626;18.866;2023-05-10T13:02:05;1.50;;;1.40;;
58071;SDS011;60383;46.626;18.866;2023-05-10T13:04:31;1.48;;;1.38;;
58071;SDS011;60383;46.626;18.866;2023-05-10T13:06:57;1.20;;;1.10;;
58071;SDS011;60383;46.626;18.866;2023-05-10T13:09:26;1.52;;;1.30;;
58071;SDS011;60383;46.626;18.866;2023-05-10T13:11:53;1.30;;;1.17;;
58071;SDS011;60383;46.626;18.866;2023-05-10T13:14:19;1.92;;;1.52;;
58071;SDS011;60383;46.626;18.866;2023-05-10T13:16:45;1.30;;;1.20;;
58071;SDS011;60383;46.626;18.866;2023-05-10T13:19:12;1.30;;;1.20;;
58071;SDS011;60383;46.626;18.866;2023-05-10T13:21:38;2.50;;;1.50;;
58071;SDS011;60383;46.626;18.866;2023-05-10T13:24:05;2.17;;;1.40;;
58071;SDS011;60383;46.626;18.866;2023-05-10T13:26:31;2.25;;;1.30;;
58071;SDS011;60383;46.626;18.866;2023-05-10T13:28:57;1.30;;;1.20;;
58071;SDS011;60383;46.626;18.866;2023-05-10T13:31:23;1.42;;;1.27;;
58071;SDS011;60383;46.626;18.866;2023-05-10T13:33:48;1.27;;;1.17;;
58071;SDS011;60383;46.626;18.866;2023-05-10T13:36:13;1.83;;;1.45;;
58071;SDS011;60383;46.626;18.866;2023-05-10T13:38:39;1.20;;;1.10;;
58071;SDS011;60383;46.626;18.866;2023-05-10T13:41:05;1.50;;;1.40;;
58071;SDS011;60383;46.626;18.866;2023-05-10T13:43:30;1.80;;;1.33;;
58071;SDS011;60383;46.626;18.866;2023-05-10T13:45:56;1.92;;;1.40;;
58071;SDS011;60383;46.626;18.866;2023-05-10T13:48:21;2.10;;;1.40;;
58071;SDS011;60383;46.626;18.866;2023-05-10T13:50:48;1.58;;;1.38;;
58071;SDS011;60383;46.626;18.866;2023-05-10T13:53:13;3.72;;;1.45;;
58071;SDS011;60383;46.626;18.866;2023-05-10T13:55:39;1.17;;;1.08;;
58071;SDS011;60383;46.626;18.866;2023-05-10T13:58:05;2.03;;;1.42;;
58071;SDS011;60383;46.626;18.866;2023-05-10T14:00:30;1.50;;;1.40;;
58071;SDS011;60383;46.626;18.866;2023-05-10T14:02:56;1.60;;;1.50;;
58071;SDS011;60383;46.626;18.866;2023-05-10T14:05:21;1.67;;;1.50;;
58071;SDS011;60383;46.626;18.866;2023-05-10T14:07:48;1.55;;;1.20;;
58071;SDS011;60383;46.626;18.866;2023-05-10T14:10:13;1.40;;;1.30;;
58071;SDS011;60383;46.626;18.866;2023-05-10T14:12:39;1.20;;;1.10;;
58071;SDS011;60383;46.626;18.866;2023-05-10T14:15:05;1.38;;;1.20;;
58071;SDS011;60383;46.626;18.866;2023-05-10T14:17:31;1.65;;;1.55;;
58071;SDS011;60383;46.626;18.866;2023-05-10T14:19:57;3.15;;;1.35;;
58071;SDS011;60383;46.626;18.866;2023-05-10T14:22:22;1.60;;;1.50;;
58071;SDS011;60383;46.626;18.866;2023-05-10T14:24:48;2.78;;;1.27;;
58071;SDS011;60383;46.626;18.866;2023-05-10T14:27:14;2.22;;;1.30;;
58071;SDS011;60383;46.626;18.866;2023-05-10T14:29:40;2.00;;;1.30;;
58071;SDS011;60383;46.626;18.866;2023-05-10T14:32:05;1.55;;;1.30;;
58071;SDS011;60383;46.626;18.866;2023-05-10T14:34:31;1.30;;;1.20;;
58071;SDS011;60383;46.626;18.866;2023-05-10T14:36:56;1.90;;;1.40;;
58071;SDS011;60383;46.626;18.866;2023-05-10T14:39:22;1.40;;;1.30;;
58071;SDS011;60383;46.626;18.866;2023-05-10T14:41:48;2.85;;;1.35;;
58071;SDS011;60383;46.626;18.866;2023-05-10T14:44:13;1.38;;;1.20;;
58071;SDS011;60383;46.626;18.866;2023-05-10T14:46:40;1.30;;;1.20;;
58071;SDS011;60383;46.626;18.866;2023-05-10T14:49:06;1.20;;;1.10;;
58071;SDS011;60383;46.626;18.866;2023-05-10T14:51:32;1.20;;;1.10;;
58071;SDS011;60383;46.626;18.866;2023-05-10T14:53:58;2.03;;;1.27;;
58071;SDS011;60383;46.626;18.866;2023-05-10T14:56:23;1.50;;;1.30;;
58071;SDS011;60383;46.626;18.866;2023-05-10T14:58:50;1.73;;;1.20;;
58071;SDS011;60383;46.626;18.866;2023-05-10T15:01:16;1.35;;;1.23;;
58071;SDS011;60383;46.626;18.866;2023-05-10T15:03:41;3.03;;;1.55;;
58071;SDS011;60383;46.626;18.866;2023-05-10T15:06:07;1.30;;;1.20;;
58071;SDS011;60383;46.626;18.866;2023-05-10T15:08:33;1.40;;;1.10;;